Time;durP1;ratioP1;P1;durP2;ratioP2;P2;SDS_P1;SDS_P2;PMS_P1;PMS_P2;Temp;Humidity;BMP_temperature;BMP_pressure;BME280_temperature;BME280_humidity;BME280_pressure;Samples;Min_cycle;Max_cycle;Signal;HPM_P1;HPM_P2
2021/12/23 00:01:30;;;;;;;90.70;34.03;;;;;;;-7.66;81.03;99769.31;2171740;82;21004;-69
2021/12/23 00:04:31;;;;;;;105.92;37.35;;;;;;;-7.64;81.27;99764.64;2192647;81;20975;-69
2021/12/23 00:07:31;;;;;;;110.42;41.10;;;;;;;-7.64;81.12;99756.61;2171681;82;21048;-69
2021/12/23 00:10:31;;;;;;;110.80;40.80;;;;;;;-7.54;81.09;99762.40;2192405;81;21050;-68
2021/12/23 00:13:35;;;;;;;106.47;36.73;;;;;;;-7.50;81.01;99755.69;2171725;82;21004;-66
2021/12/23 00:19:47;;;;;;;110.10;39.73;;;;;;;-7.43;81.15;99735.05;2146859;82;21008;-67
2021/12/23 00:25:41;;;;;;;107.65;39.78;;;;;;;-7.28;81.83;99730.36;2146770;82;21539;-67
2021/12/23 00:28:41;;;;;;;117.55;41.85;;;;;;;-7.18;81.70;99733.58;2192388;81;21011;-68
2021/12/23 00:31:42;;;;;;;113.50;41.42;;;;;;;-7.12;81.55;99739.25;2171911;82;20997;-67
2021/12/23 00:34:43;;;;;;;111.68;43.58;;;;;;;-7.07;81.54;99736.81;2192113;81;21023;-67
2021/12/23 00:37:46;;;;;;;109.27;41.45;;;;;;;-7.06;81.33;99737.27;2171651;82;21519;-64
2021/12/23 00:40:45;;;;;;;122.72;47.13;;;;;;;-7.06;81.51;99739.81;2165169;81;20983;-66
2021/12/23 00:43:46;;;;;;;132.67;48.68;;;;;;;-7.04;81.53;99742.86;2171744;82;21515;-68
2021/12/23 00:46:47;;;;;;;135.82;50.20;;;;;;;-7.05;81.42;99731.31;2192528;81;21506;-68
2021/12/23 00:49:47;;;;;;;115.82;45.17;;;;;;;-7.05;81.66;99730.92;2171773;82;21020;-68
2021/12/23 00:52:54;;;;;;;120.10;43.87;;;;;;;-7.00;81.63;99736.13;2192348;81;21058;-68
2021/12/23 00:55:52;;;;;;;112.22;39.95;;;;;;;-6.97;81.64;99720.89;2146886;82;21024;-68
2021/12/23 00:58:52;;;;;;;119.62;40.83;;;;;;;-6.92;81.46;99718.45;2192369;81;21014;-68
2021/12/23 01:01:53;;;;;;;115.70;41.55;;;;;;;-6.91;81.42;99712.53;2171665;82;20949;-66
2021/12/23 01:04:53;;;;;;;112.55;40.65;;;;;;;-6.83;81.58;99703.37;2192504;81;20995;-66
2021/12/23 01:07:53;;;;;;;106.17;40.95;;;;;;;-6.73;81.51;99702.75;2171920;82;21193;-67
2021/12/23 01:10:58;;;;;;;118.87;41.88;;;;;;;-6.69;81.60;99699.45;2165133;81;21023;-67
2021/12/23 01:17:22;;;;;;;;;;;;;;;-6.62;81.39;99691.09;2167541;81;21046;-68
2021/12/23 01:20:03;;;;;;;103.95;38.25;;;;;;;-6.63;81.31;99682.98;2146758;82;20106;-68
2021/12/23 01:23:03;;;;;;;124.20;43.08;;;;;;;-6.62;81.37;99685.99;2192231;81;20979;-64
2021/12/23 01:26:04;;;;;;;115.12;40.52;;;;;;;-6.63;81.39;99681.70;2171812;82;21529;-67
2021/12/23 01:29:04;;;;;;;114.28;41.55;;;;;;;-6.54;81.72;99686.14;2192226;81;21002;-67
2021/12/23 01:32:06;;;;;;;109.87;41.85;;;;;;;-6.46;81.71;99681.23;2171856;82;21083;-68
2021/12/23 01:35:06;;;;;;;119.33;42.67;;;;;;;-6.48;81.71;99681.20;2192481;81;20931;-68
2021/12/23 01:38:07;;;;;;;113.20;43.00;;;;;;;-6.35;82.06;99678.49;2171747;82;21487;-66
2021/12/23 01:41:07;;;;;;;115.77;43.20;;;;;;;-6.27;82.04;99670.98;2192357;81;20959;-67
2021/12/23 01:44:08;;;;;;;138.82;48.85;;;;;;;-6.15;81.82;99678.02;2171587;82;21060;-67
2021/12/23 01:47:08;;;;;;;148.35;48.48;;;;;;;-6.17;81.57;99670.75;2192380;81;21019;-66
2021/12/23 01:50:09;;;;;;;124.70;45.65;;;;;;;-6.17;81.69;99663.94;2171441;82;21028;-68
2021/12/23 01:53:09;;;;;;;113.68;44.48;;;;;;;-6.12;81.69;99659.80;2192159;81;21018;-66
2021/12/23 01:56:10;;;;;;;120.75;44.23;;;;;;;-6.13;81.20;99658.48;2171734;82;21011;-67
2021/12/23 01:59:10;;;;;;;111.42;42.70;;;;;;;-6.20;81.35;99657.92;2192137;81;21399;-68
2021/12/23 02:02:10;;;;;;;116.65;43.80;;;;;;;-6.25;81.26;99648.88;2171611;82;21016;-67
2021/12/23 02:05:11;;;;;;;109.87;41.60;;;;;;;-6.24;81.54;99651.88;2192611;81;20963;-68
2021/12/23 02:08:11;;;;;;;113.85;44.80;;;;;;;-6.30;81.31;99649.21;2171557;82;20993;-68
2021/12/23 02:11:12;;;;;;;117.20;46.48;;;;;;;-6.36;81.38;99644.84;2192300;81;21007;-68
2021/12/23 02:14:12;;;;;;;120.62;46.58;;;;;;;-6.41;81.30;99641.32;2171765;82;20985;-68
2021/12/23 02:17:13;;;;;;;119.53;46.48;;;;;;;-6.41;81.54;99644.30;2192304;81;21570;-68
2021/12/23 02:20:13;;;;;;;120.70;47.48;;;;;;;-6.42;81.46;99639.62;2171585;82;21036;-68
2021/12/23 02:23:13;;;;;;;118.30;45.95;;;;;;;-6.43;81.57;99637.04;2192184;81;21026;-68
2021/12/23 02:26:14;;;;;;;116.25;44.48;;;;;;;-6.42;81.36;99629.80;2171872;82;21008;-68
2021/12/23 02:29:14;;;;;;;112.37;45.30;;;;;;;-6.47;81.51;99628.02;2192187;81;21029;-68
2021/12/23 02:32:15;;;;;;;112.40;45.35;;;;;;;-6.37;81.78;99626.94;2171879;82;20972;-68
2021/12/23 02:35:15;;;;;;;117.62;44.85;;;;;;;-6.31;81.30;99621.95;2192489;81;21459;-67
2021/12/23 02:38:16;;;;;;;116.88;45.85;;;;;;;-6.36;81.24;99618.03;2171580;82;21005;-68
2021/12/23 02:41:16;;;;;;;121.15;45.15;;;;;;;-6.41;81.11;99609.83;2192594;81;20967;-68
2021/12/23 02:44:17;;;;;;;112.92;45.30;;;;;;;-6.39;81.44;99609.04;2171753;82;21092;-68
2021/12/23 02:47:18;;;;;;;119.97;43.98;;;;;;;-6.41;81.28;99608.12;2192501;81;20999;-68
2021/12/23 02:50:19;;;;;;;99.87;38.90;;;;;;;-6.34;81.34;99600.19;2172014;82;21558;-67
2021/12/23 02:53:19;;;;;;;112.12;45.60;;;;;;;-6.40;81.37;99600.92;2192753;81;20976;-66
2021/12/23 02:56:19;;;;;;;117.10;45.12;;;;;;;-6.40;81.34;99594.97;2172029;82;21024;-67
2021/12/23 02:59:20;;;;;;;118.62;46.28;;;;;;;-6.39;81.42;99585.18;2192012;81;21019;-68
2021/12/23 03:02:21;;;;;;;121.40;46.00;;;;;;;-6.38;81.49;99581.80;2171931;82;21582;-68
2021/12/23 03:05:22;;;;;;;117.05;45.60;;;;;;;-6.37;81.35;99572.05;2192420;81;21010;-68
2021/12/23 03:08:22;;;;;;;115.12;44.58;;;;;;;-6.37;81.21;99570.34;2172060;82;20981;-67
2021/12/23 03:11:23;;;;;;;124.33;47.33;;;;;;;-6.52;80.90;99566.20;2192276;81;21051;-68
2021/12/23 03:14:23;;;;;;;111.97;43.70;;;;;;;-6.59;81.34;99551.60;2171947;82;21567;-67
2021/12/23 03:17:24;;;;;;;116.08;44.67;;;;;;;-6.62;81.18;99549.45;2192442;81;20999;-67
2021/12/23 03:20:24;;;;;;;120.30;46.40;;;;;;;-6.72;81.33;99546.27;2171688;82;21051;-66
2021/12/23 03:23:25;;;;;;;111.32;44.48;;;;;;;-6.74;81.25;99547.06;2192594;81;20964;-66
2021/12/23 03:26:26;;;;;;;119.40;45.58;;;;;;;-6.67;81.28;99542.10;2172027;82;21020;-67
2021/12/23 03:29:26;;;;;;;116.53;42.40;;;;;;;-6.68;81.09;99542.08;2192474;81;20992;-67
2021/12/23 03:32:27;;;;;;;114.67;43.20;;;;;;;-6.75;80.97;99538.95;2171917;82;21544;-65
2021/12/23 03:35:27;;;;;;;116.05;45.63;;;;;;;-6.82;81.10;99540.12;2192457;81;21043;-67
2021/12/23 03:38:28;;;;;;;118.93;43.58;;;;;;;-6.87;81.08;99535.32;2171575;82;20997;-67
2021/12/23 03:41:28;;;;;;;112.72;42.48;;;;;;;-6.90;80.79;99535.27;2192453;81;20958;-67
2021/12/23 03:44:29;;;;;;;114.42;44.08;;;;;;;-7.04;81.02;99535.00;2168576;82;21103;-66
2021/12/23 03:47:29;;;;;;;111.40;44.50;;;;;;;-7.09;80.90;99534.45;2185471;81;21015;-68
2021/12/23 03:50:29;;;;;;;120.80;43.25;;;;;;;-7.22;80.89;99525.67;2168096;82;21523;-64
2021/12/23 03:53:30;;;;;;;119.87;45.90;;;;;;;-7.28;81.02;99530.62;2185303;81;21016;-67
2021/12/23 03:56:30;;;;;;;111.17;41.80;;;;;;;-7.33;81.25;99518.63;2168125;82;20980;-68
2021/12/23 03:59:31;;;;;;;111.47;42.08;;;;;;;-7.27;81.40;99503.88;2185521;81;21011;-66
2021/12/23 04:02:31;;;;;;;106.45;42.55;;;;;;;-7.25;81.22;99506.49;2168473;82;20981;-68
2021/12/23 04:05:32;;;;;;;106.80;40.88;;;;;;;-7.24;81.30;99501.42;2185168;81;21058;-68
2021/12/23 04:08:32;;;;;;;114.92;43.33;;;;;;;-7.24;81.47;99502.70;2168243;82;21468;-67
2021/12/23 04:11:33;;;;;;;115.77;40.70;;;;;;;-7.17;81.42;99490.92;2185222;81;21054;-67
2021/12/23 04:14:33;;;;;;;108.97;41.83;;;;;;;-7.12;81.39;99495.72;2168107;82;20977;-67
2021/12/23 04:17:34;;;;;;;109.90;43.35;;;;;;;-7.14;81.28;99495.69;2185542;81;20988;-67
2021/12/23 04:20:46;;;;;;;105.97;40.50;;;;;;;-7.12;81.37;99493.16;2168189;82;21009;-67
2021/12/23 04:23:36;;;;;;;;;;;;;;;-7.16;81.29;99485.00;2158859;81;20987;-66
2021/12/23 04:26:37;;;;;;;104.83;38.98;;;;;;;-7.13;81.32;99482.51;2168352;82;20140;-67
2021/12/23 04:29:37;;;;;;;110.95;41.23;;;;;;;-7.15;81.29;99478.66;2185596;81;21012;-67
2021/12/23 04:32:38;;;;;;;105.10;40.50;;;;;;;-7.15;81.52;99467.61;2168222;82;20989;-68
2021/12/23 04:35:38;;;;;;;112.83;40.23;;;;;;;-7.06;81.54;99460.55;2185038;81;21522;-67
2021/12/23 04:38:38;;;;;;;106.40;41.60;;;;;;;-7.01;81.18;99457.66;2168164;82;21551;-68
2021/12/23 04:41:39;;;;;;;108.90;41.53;;;;;;;-7.06;81.22;99455.02;2185245;81;21016;-64
2021/12/23 04:44:39;;;;;;;108.47;41.85;;;;;;;-7.05;81.30;99461.86;2167978;82;21025;-68
2021/12/23 04:47:40;;;;;;;99.95;39.75;;;;;;;-7.02;81.26;99459.79;2185500;81;20979;-66
2021/12/23 04:50:40;;;;;;;102.80;38.53;;;;;;;-7.06;81.25;99447.80;2168139;82;20985;-66
2021/12/23 04:53:41;;;;;;;94.70;38.48;;;;;;;-7.17;81.16;99448.45;2185224;81;21478;-67
2021/12/23 04:56:41;;;;;;;96.35;37.88;;;;;;;-7.20;81.53;99441.14;2168065;82;21543;-68
2021/12/23 04:59:41;;;;;;;103.15;40.08;;;;;;;-7.19;81.56;99439.05;2185197;81;21067;-67
2021/12/23 05:02:42;;;;;;;108.72;40.88;;;;;;;-7.19;81.67;99437.77;2168111;82;21047;-66
2021/12/23 05:05:45;;;;;;;111.95;40.58;;;;;;;-7.13;81.77;99435.34;2155941;81;21020;-67
2021/12/23 05:08:45;;;;;;;100.40;40.17;;;;;;;-7.14;81.59;99428.50;2168156;82;20985;-66
2021/12/23 05:11:46;;;;;;;101.85;39.60;;;;;;;-7.28;81.56;99431.19;2185324;81;20967;-67
2021/12/23 05:14:46;;;;;;;104.43;37.98;;;;;;;-7.32;81.71;99419.66;2168184;82;21480;-67
2021/12/23 05:17:47;;;;;;;101.42;40.95;;;;;;;-7.34;81.72;99412.80;2185205;81;20972;-67
2021/12/23 05:20:48;;;;;;;106.32;39.85;;;;;;;-7.32;81.71;99412.44;2168016;82;21057;-67
2021/12/23 05:23:49;;;;;;;99.60;36.42;;;;;;;-7.39;81.80;99408.89;2185508;81;21012;-68
2021/12/23 05:26:50;;;;;;;100.47;38.60;;;;;;;-7.46;81.80;99408.75;2168019;82;21467;-68
2021/12/23 05:29:50;;;;;;;100.97;39.20;;;;;;;-7.54;81.98;99406.02;2184848;81;21053;-68
2021/12/23 05:32:50;;;;;;;96.17;37.48;;;;;;;-7.53;82.02;99405.20;2168158;82;20983;-68
2021/12/23 05:35:51;;;;;;;99.10;40.20;;;;;;;-7.55;82.00;99401.78;2185336;81;20953;-68
2021/12/23 05:38:51;;;;;;;106.27;39.70;;;;;;;-7.64;82.04;99396.07;2168136;82;21005;-67
2021/12/23 05:41:52;;;;;;;125.72;46.15;;;;;;;-7.64;81.97;99393.92;2185348;81;21003;-68
2021/12/23 05:44:52;;;;;;;105.97;41.45;;;;;;;-7.62;82.17;99388.46;2167704;82;21654;-68
2021/12/23 05:47:53;;;;;;;102.02;39.65;;;;;;;-7.67;82.07;99380.30;2185224;81;20951;-66
2021/12/23 05:50:53;;;;;;;107.03;41.48;;;;;;;-7.66;82.14;99369.69;2168260;82;20954;-66
2021/12/23 05:53:54;;;;;;;102.50;39.15;;;;;;;-7.69;82.13;99360.28;2185340;81;20960;-68
2021/12/23 05:56:57;;;;;;;101.97;39.63;;;;;;;-7.73;82.10;99360.20;2168088;82;21051;-68
2021/12/23 05:59:56;;;;;;;98.42;38.73;;;;;;;-7.72;82.23;99353.85;2156420;81;21043;-67
2021/12/23 06:02:57;;;;;;;102.02;38.58;;;;;;;-7.74;82.21;99347.00;2168144;82;20977;-68
2021/12/23 06:05:57;;;;;;;113.08;42.73;;;;;;;-7.71;82.09;99346.67;2185339;81;21505;-68
2021/12/23 06:08:58;;;;;;;112.60;44.65;;;;;;;-7.73;82.14;99344.52;2168195;82;21460;-67
2021/12/23 06:11:58;;;;;;;106.27;43.73;;;;;;;-7.69;82.21;99345.00;2185532;81;21506;-68
2021/12/23 06:14:58;;;;;;;108.17;42.20;;;;;;;-7.69;82.05;99348.81;2168330;82;20988;-67
2021/12/23 06:17:59;;;;;;;111.17;42.30;;;;;;;-7.66;82.13;99348.91;2185382;81;20999;-68
2021/12/23 06:21:00;;;;;;;109.05;43.23;;;;;;;-7.68;81.95;99344.61;2167953;82;21044;-68
2021/12/23 06:24:03;;;;;;;114.55;45.60;;;;;;;-7.72;82.09;99346.64;2185329;81;21087;-67
2021/12/23 06:27:03;;;;;;;;;;;;;;;-7.73;81.96;99348.34;2144365;82;20953;-67
2021/12/23 06:30:03;;;;;;;114.50;47.15;;;;;;;-7.75;82.07;99349.12;2182397;82;20177;-67
2021/12/23 06:33:06;;;;;;;106.40;43.30;;;;;;;-7.69;82.11;99346.27;2182049;82;21016;-65
2021/12/23 06:36:06;;;;;;;110.03;42.70;;;;;;;-7.74;81.92;99351.70;2154853;82;21020;-66
2021/12/23 06:39:07;;;;;;;103.70;40.52;;;;;;;-7.77;82.00;99347.82;2185429;81;21067;-63
2021/12/23 06:42:07;;;;;;;105.25;41.60;;;;;;;-7.71;82.18;99353.03;2168303;82;21100;-65
2021/12/23 06:45:08;;;;;;;107.55;40.28;;;;;;;-7.71;82.00;99355.58;2190924;81;21475;-67
2021/12/23 06:48:08;;;;;;;96.08;40.60;;;;;;;-7.63;81.92;99355.73;2171927;82;20976;-67
2021/12/23 06:51:09;;;;;;;103.47;41.58;;;;;;;-7.60;82.14;99351.12;2192325;81;21011;-68
2021/12/23 06:54:09;;;;;;;108.40;42.30;;;;;;;-7.54;81.82;99346.14;2171825;82;21011;-65
2021/12/23 06:57:09;;;;;;;106.72;41.85;;;;;;;-7.54;81.84;99348.29;2192646;81;20947;-68
2021/12/23 07:00:10;;;;;;;102.58;41.95;;;;;;;-7.50;81.67;99339.00;2171729;82;20973;-68
2021/12/23 07:03:10;;;;;;;109.65;43.02;;;;;;;-7.49;81.67;99335.63;2192463;81;21450;-67
2021/12/23 07:06:17;;;;;;;112.47;43.15;;;;;;;-7.54;81.67;99335.95;2171821;82;21000;-68
2021/12/23 07:09:13;;;;;;;113.60;45.40;;;;;;;-7.49;81.70;99333.09;2165288;81;20979;-67
2021/12/23 07:12:13;;;;;;;122.72;46.45;;;;;;;-7.40;81.72;99331.13;2171896;82;21020;-66
2021/12/23 07:15:14;;;;;;;110.65;44.25;;;;;;;-7.34;81.67;99324.47;2192369;81;21074;-67
2021/12/23 07:18:14;;;;;;;103.85;41.83;;;;;;;-7.29;81.41;99319.45;2171654;82;21091;-67
2021/12/23 07:21:15;;;;;;;116.75;45.12;;;;;;;-7.23;81.50;99319.98;2192612;81;21009;-65
2021/12/23 07:24:15;;;;;;;133.12;48.10;;;;;;;-7.13;81.40;99314.21;2171892;82;20985;-67
2021/12/23 07:27:16;;;;;;;146.20;54.00;;;;;;;-7.10;81.30;99315.97;2192349;81;21513;-67
2021/12/23 07:30:18;;;;;;;154.30;54.60;;;;;;;-7.01;81.33;99320.81;2171843;82;21482;-68
2021/12/23 07:33:18;;;;;;;158.40;54.80;;;;;;;-6.86;81.40;99315.53;2192752;81;20944;-67
2021/12/23 07:36:20;;;;;;;151.18;52.08;;;;;;;-6.71;81.04;99304.72;2171849;82;21001;-67
2021/12/23 07:39:21;;;;;;;185.25;61.50;;;;;;;-6.60;81.25;99301.08;2192434;81;21022;-65
2021/12/23 07:42:22;;;;;;;291.23;97.97;;;;;;;-6.43;80.94;99303.89;2171890;82;21456;-67
2021/12/23 07:45:22;;;;;;;163.90;60.12;;;;;;;-6.27;80.78;99304.55;2186417;81;21070;-65
2021/12/23 07:48:23;;;;;;;180.75;62.83;;;;;;;-6.16;80.63;99297.89;2168279;82;20973;-66
2021/12/23 07:51:23;;;;;;;176.10;62.65;;;;;;;-5.97;80.66;99305.81;2185418;81;21047;-66
2021/12/23 07:54:23;;;;;;;145.70;53.33;;;;;;;-5.84;80.40;99290.19;2168255;82;21337;-67
2021/12/23 07:57:24;;;;;;;209.10;71.92;;;;;;;-5.82;80.10;99290.66;2185311;81;21494;-67
2021/12/23 08:00:29;;;;;;;187.92;68.47;;;;;;;-5.69;80.37;99290.35;2168062;82;21036;-66
2021/12/23 08:03:27;;;;;;;251.60;85.60;;;;;;;-5.51;80.04;99299.11;2156387;81;21011;-67
2021/12/23 08:06:27;;;;;;;254.95;83.15;;;;;;;-5.36;80.07;99292.86;2168835;82;21031;-66
2021/12/23 08:09:28;;;;;;;107.70;44.70;;;;;;;-5.25;80.17;99285.31;2185280;81;20984;-67
2021/12/23 08:12:28;;;;;;;116.62;47.08;;;;;;;-5.08;80.07;99277.80;2168236;82;21048;-67
2021/12/23 08:15:28;;;;;;;111.25;46.77;;;;;;;-4.96;79.52;99274.06;2185468;81;21007;-67
2021/12/23 08:18:29;;;;;;;108.17;46.92;;;;;;;-4.87;79.80;99260.08;2168188;82;21040;-67
2021/12/23 08:21:29;;;;;;;106.43;43.08;;;;;;;-4.82;79.23;99253.71;2185179;81;21008;-67
2021/12/23 08:24:30;;;;;;;106.78;43.17;;;;;;;-4.78;79.17;99252.05;2168306;82;21508;-65
2021/12/23 08:27:31;;;;;;;101.62;43.73;;;;;;;-4.76;79.18;99243.95;2185254;81;20936;-66
2021/12/23 08:30:33;;;;;;;110.78;44.48;;;;;;;-4.70;79.13;99247.42;2168048;82;21496;-67
2021/12/23 08:33:36;;;;;;;110.78;46.92;;;;;;;-4.54;79.30;99248.78;2155845;81;21054;-67
2021/12/23 08:36:37;;;;;;;106.97;44.67;;;;;;;-4.33;78.80;99245.95;2167736;82;21508;-65
2021/12/23 08:39:37;;;;;;;112.42;46.45;;;;;;;-4.27;78.87;99239.57;2184884;81;21011;-66
2021/12/23 08:42:37;;;;;;;114.00;48.20;;;;;;;-4.18;78.41;99239.60;2168334;82;21008;-67
2021/12/23 08:45:38;;;;;;;112.92;49.10;;;;;;;-4.06;78.65;99234.55;2191162;80;20996;-66
2021/12/23 08:48:38;;;;;;;116.03;48.48;;;;;;;-3.89;78.30;99227.38;2171775;82;21004;-64
2021/12/23 08:51:41;;;;;;;112.90;44.95;;;;;;;-3.73;78.24;99224.00;2192416;81;20968;-67
2021/12/23 08:54:42;;;;;;;103.58;43.90;;;;;;;-3.56;78.53;99216.77;2172206;82;20957;-66
2021/12/23 08:57:43;;;;;;;99.70;44.23;;;;;;;-3.22;77.55;99198.88;2192650;81;20976;-67
2021/12/23 09:00:43;;;;;;;100.87;42.78;;;;;;;-3.22;77.55;99198.88;2171744;82;21869;-67
2021/12/23 09:03:44;;;;;;;127.67;56.58;;;;;;;-3.14;77.09;99186.91;2192408;81;20975;-67
2021/12/23 09:06:44;;;;;;;109.95;50.48;;;;;;;-3.01;77.22;99182.19;2171874;82;21075;-66
2021/12/23 09:09:50;;;;;;;107.12;45.98;;;;;;;-2.87;77.31;99174.49;2192335;81;20963;-66
2021/12/23 09:12:47;;;;;;;99.85;45.92;;;;;;;-2.79;76.66;99171.50;2146910;82;20997;-67
2021/12/23 09:15:48;;;;;;;102.25;47.33;;;;;;;-2.64;76.96;99165.47;2192062;81;20992;-66
2021/12/23 09:18:48;;;;;;;102.27;45.63;;;;;;;-2.53;76.90;99153.02;2171722;82;21555;-66
2021/12/23 09:21:49;;;;;;;116.05;50.50;;;;;;;-2.56;76.12;99158.17;2191946;81;21014;-66
2021/12/23 09:24:52;;;;;;;107.03;49.38;;;;;;;-2.50;76.53;99156.45;2171804;82;21023;-67
2021/12/23 09:33:56;;;;;;;106.47;47.60;;;;;;;-2.38;76.59;99140.58;2165088;81;21038;-67
2021/12/23 09:36:56;;;;;;;96.42;43.13;;;;;;;-2.31;76.08;99139.69;2171753;82;21479;-67
2021/12/23 09:39:58;;;;;;;90.32;39.75;;;;;;;-2.15;76.45;99134.05;2192202;81;21513;-66
2021/12/23 09:42:59;;;;;;;81.20;36.45;;;;;;;-2.02;75.39;99129.27;2171857;82;20957;-65
2021/12/23 09:45:59;;;;;;;92.12;40.20;;;;;;;-1.94;75.56;99125.36;2192277;81;21007;-66
2021/12/23 09:49:00;;;;;;;87.85;39.20;;;;;;;-1.85;75.45;99119.30;2171752;82;21020;-66
2021/12/23 09:52:00;;;;;;;94.60;42.38;;;;;;;-1.82;75.37;99113.73;2191926;81;21454;-67
2021/12/23 09:55:01;;;;;;;90.75;39.83;;;;;;;-1.83;75.33;99108.59;2171661;82;21542;-67
2021/12/23 09:58:02;;;;;;;88.58;37.93;;;;;;;-1.79;74.96;99101.28;2192221;81;21006;-67
2021/12/23 10:01:03;;;;;;;80.95;36.03;;;;;;;-1.81;75.07;99088.85;2171653;82;21119;-66
2021/12/23 10:04:03;;;;;;;81.30;36.40;;;;;;;-1.72;75.40;99095.65;2192390;81;20948;-67
2021/12/23 10:07:04;;;;;;;88.90;38.02;;;;;;;-1.65;74.75;99084.45;2171772;82;21538;-66
2021/12/23 10:10:11;;;;;;;84.32;37.63;;;;;;;-1.65;74.57;99079.30;2192329;81;20986;-67
2021/12/23 10:31:22;;;;;;;87.45;37.33;;;;;;;-1.18;74.85;99034.30;2146840;82;20123;-67
2021/12/23 10:37:25;;;;;;;86.57;37.98;;;;;;;-0.85;74.43;99011.63;2146804;82;21051;-66
2021/12/23 10:40:25;;;;;;;82.47;35.92;;;;;;;-0.87;74.04;99000.50;2192516;81;21023;-66
2021/12/23 10:43:26;;;;;;;73.45;34.38;;;;;;;-0.85;73.95;98996.62;2171939;82;20973;-67
2021/12/23 10:46:27;;;;;;;85.00;36.53;;;;;;;-0.83;73.14;98993.16;2192071;80;20963;-67
2021/12/23 10:52:31;;;;;;;94.70;42.60;;;;;;;-0.78;74.12;98979.77;2192201;81;21474;-67
2021/12/23 10:58:33;;;;;;;86.28;37.20;;;;;;;-0.73;74.21;98965.13;2164761;81;21035;-67
2021/12/23 11:01:36;;;;;;;81.55;36.73;;;;;;;-0.66;74.10;98952.15;2171827;82;21024;-66
2021/12/23 11:04:38;;;;;;;71.57;33.30;;;;;;;-0.61;73.71;98943.94;2165214;81;20971;-66
2021/12/23 11:07:40;;;;;;;78.60;33.78;;;;;;;-0.61;73.56;98937.50;2147141;82;21503;-67
2021/12/23 11:35:32;;;;;;;;;;;;;;;-0.70;71.07;98885.66;2149614;82;21511;-67
2021/12/23 11:41:16;;;;;;;57.48;25.45;;;;;;;-0.85;71.28;98875.13;2146910;82;21012;-67
2021/12/23 11:44:07;;;;;;;62.55;25.92;;;;;;;-0.95;71.14;98873.55;2165234;81;20963;-67
2021/12/23 11:47:13;;;;;;;57.80;23.73;;;;;;;-1.00;71.52;98870.20;2171771;82;21479;-67
2021/12/23 11:50:18;;;;;;;56.53;24.25;;;;;;;-0.97;71.51;98861.14;2165213;81;20979;-67
2021/12/23 11:53:12;;;;;;;53.63;22.98;;;;;;;-1.05;71.49;98855.66;2146887;82;21052;-67
2021/12/23 11:56:13;;;;;;;61.75;24.75;;;;;;;-1.07;72.06;98845.80;2192708;81;20936;-67
2021/12/23 11:59:14;;;;;;;55.33;23.30;;;;;;;-1.08;71.79;98845.83;2171682;82;21048;-66
2021/12/23 12:02:15;;;;;;;55.70;23.75;;;;;;;-1.16;70.33;98829.21;2192356;81;21505;-67
2021/12/23 12:05:15;;;;;;;55.48;23.75;;;;;;;-1.20;71.94;98827.99;2171947;82;20953;-67
2021/12/23 12:08:16;;;;;;;56.40;24.52;;;;;;;-1.23;71.57;98803.14;2192475;81;20998;-66
2021/12/23 12:11:16;;;;;;;61.42;24.90;;;;;;;-1.25;72.16;98799.30;2171843;82;20988;-67
2021/12/23 12:14:17;;;;;;;56.60;23.85;;;;;;;-1.27;72.03;98791.18;2192663;81;21007;-67
2021/12/23 12:17:17;;;;;;;55.73;23.42;;;;;;;-1.31;71.17;98789.06;2171857;82;20993;-67
2021/12/23 12:23:20;;;;;;;59.67;24.32;;;;;;;-1.44;72.28;98770.81;2147000;82;21080;-66
2021/12/23 12:26:20;;;;;;;58.02;23.75;;;;;;;-1.50;72.57;98773.47;2192591;81;21011;-67
2021/12/23 12:29:21;;;;;;;62.83;25.17;;;;;;;-1.49;72.43;98770.88;2171810;82;20989;-67
2021/12/23 12:32:21;;;;;;;58.78;23.30;;;;;;;-1.54;72.58;98766.66;2192321;81;21516;-67
2021/12/23 12:35:22;;;;;;;59.67;25.95;;;;;;;-1.59;72.20;98757.73;2171737;82;21002;-67
2021/12/23 12:38:22;;;;;;;58.23;24.05;;;;;;;-1.62;72.74;98765.48;2192034;81;20991;-67
2021/12/23 12:41:23;;;;;;;61.50;27.30;;;;;;;-1.65;72.73;98758.66;2171795;82;21039;-67
2021/12/23 12:44:28;;;;;;;56.98;24.98;;;;;;;-1.64;72.75;98759.08;2191635;80;21146;-67
2021/12/23 12:47:27;;;;;;;60.50;25.20;;;;;;;-1.63;72.59;98753.05;2141377;82;21077;-67
2021/12/23 12:50:28;;;;;;;64.32;26.40;;;;;;;-1.59;72.67;98741.01;2185544;81;21450;-68
2021/12/23 12:53:28;;;;;;;66.82;27.87;;;;;;;-1.47;72.78;98736.13;2168102;82;20997;-68
2021/12/23 12:56:28;;;;;;;60.83;25.43;;;;;;;-1.38;72.76;98725.69;2185557;81;21024;-66
2021/12/23 12:59:29;;;;;;;64.85;26.52;;;;;;;-1.29;72.30;98727.31;2168149;82;21004;-67
2021/12/23 13:02:29;;;;;;;58.40;24.77;;;;;;;-1.26;71.42;98719.54;2185379;81;21011;-67
2021/12/23 13:05:30;;;;;;;59.58;24.27;;;;;;;-1.26;72.06;98714.39;2168203;82;21472;-67
2021/12/23 13:08:33;;;;;;;65.00;25.92;;;;;;;-1.16;72.00;98716.39;2185244;81;21019;-67
2021/12/23 13:11:33;;;;;;;60.17;25.77;;;;;;;-1.20;71.84;98712.16;2141542;82;21036;-67
2021/12/23 13:14:34;;;;;;;60.90;25.50;;;;;;;-1.27;71.93;98701.09;2185407;81;21487;-68
2021/12/23 13:17:34;;;;;;;56.35;23.57;;;;;;;-1.37;71.48;98699.55;2167960;82;21562;-67
2021/12/23 13:20:35;;;;;;;55.95;23.62;;;;;;;-1.48;71.07;98688.98;2185137;81;20980;-67
2021/12/23 13:23:37;;;;;;;58.87;24.40;;;;;;;-1.65;70.15;98680.20;2168171;82;20992;-67
2021/12/23 13:26:38;;;;;;;51.58;22.37;;;;;;;-1.77;71.13;98668.38;2185533;81;21014;-67
2021/12/23 13:29:41;;;;;;;55.10;22.77;;;;;;;-1.91;70.98;98659.99;2168134;82;20993;-66
2021/12/23 13:32:40;;;;;;;59.48;23.42;;;;;;;-2.00;70.99;98663.50;2156347;81;20972;-67
2021/12/23 13:35:41;;;;;;;52.78;22.42;;;;;;;-2.07;70.74;98672.61;2168181;82;21020;-67
2021/12/23 13:38:42;;;;;;;52.00;21.37;;;;;;;-2.16;70.92;98656.88;2184802;81;21066;-67
2021/12/23 13:41:42;;;;;;;50.00;20.52;;;;;;;-2.22;71.30;98654.38;2168306;82;21115;-67
2021/12/23 13:44:44;;;;;;;51.45;21.27;;;;;;;-2.24;71.36;98637.70;2185109;81;21023;-68
2021/12/23 13:47:44;;;;;;;54.03;21.00;;;;;;;-2.27;71.36;98630.00;2168153;82;21040;-66
2021/12/23 13:50:45;;;;;;;53.80;22.32;;;;;;;-2.35;71.11;98632.68;2185260;81;20956;-66
2021/12/23 13:53:45;;;;;;;51.88;22.05;;;;;;;-2.38;71.88;98627.58;2168164;82;20953;-67
2021/12/23 13:56:46;;;;;;;49.50;20.02;;;;;;;-2.40;71.89;98615.62;2185378;81;20936;-68
2021/12/23 13:59:47;;;;;;;51.42;20.92;;;;;;;-2.49;71.51;98613.56;2168093;82;20965;-67
2021/12/23 14:02:51;;;;;;;51.98;21.65;;;;;;;-2.58;72.19;98608.99;2185238;81;21473;-68
2021/12/23 14:05:52;;;;;;;;;;;;;;;-2.66;72.26;98606.08;2143869;82;21071;-67
2021/12/23 14:08:52;;;;;;;64.83;23.60;;;;;;;-2.72;72.63;98603.55;2168251;82;20106;-68
2021/12/23 14:11:53;;;;;;;65.95;24.57;;;;;;;-2.82;72.76;98598.95;2185233;81;21550;-68
2021/12/23 14:14:54;;;;;;;60.10;24.72;;;;;;;-2.89;72.68;98596.03;2168067;82;21024;-68
2021/12/23 14:18:01;;;;;;;58.23;23.87;;;;;;;-2.99;72.75;98586.73;2185329;81;21027;-68
2021/12/23 14:23:58;;;;;;;60.75;24.35;;;;;;;-3.11;73.07;98588.98;2185172;81;21559;-68
2021/12/23 14:26:59;;;;;;;63.90;24.50;;;;;;;-3.15;73.17;98571.50;2168273;82;20957;-68
2021/12/23 14:29:59;;;;;;;66.00;25.55;;;;;;;-3.17;73.55;98568.53;2185347;81;20940;-67
2021/12/23 14:33:00;;;;;;;65.10;25.05;;;;;;;-3.18;73.40;98562.97;2168322;82;21444;-68
2021/12/23 14:36:01;;;;;;;69.65;28.25;;;;;;;-3.22;73.52;98558.73;2185627;81;21498;-67
2021/12/23 14:39:02;;;;;;;67.70;27.50;;;;;;;-3.24;73.52;98547.65;2168499;82;20993;-67
2021/12/23 14:42:03;;;;;;;75.30;28.70;;;;;;;-3.25;73.39;98539.52;2185164;81;21039;-68
2021/12/23 14:45:08;;;;;;;68.60;27.45;;;;;;;-3.32;73.58;98543.86;2168798;82;21607;-67
2021/12/23 14:48:13;;;;;;;73.15;29.37;;;;;;;-3.35;73.78;98537.06;2165311;81;20948;-68
2021/12/23 14:51:09;;;;;;;72.70;30.92;;;;;;;-3.36;73.76;98533.20;2146987;82;20962;-67
2021/12/23 14:54:09;;;;;;;69.05;29.00;;;;;;;-3.39;73.99;98526.41;2192529;81;20983;-68
2021/12/23 14:57:10;;;;;;;74.85;29.40;;;;;;;-3.39;74.01;98521.28;2171784;82;20993;-68
2021/12/23 15:00:10;;;;;;;70.37;30.77;;;;;;;-3.42;74.15;98510.19;2192440;81;20976;-67
2021/12/23 15:03:11;;;;;;;77.87;32.20;;;;;;;-3.42;74.29;98520.44;2171802;82;21483;-68